sensor_id;sensor_type;location;lat;lon;timestamp;temperature;humidity
75357;HTU21D;63946;51.986;5.930;2023-02-18T12:55:23;11.47;77.53
75357;HTU21D;63946;51.986;5.930;2023-02-18T13:03:45;11.54;77.25
75357;HTU21D;63946;51.986;5.930;2023-02-18T13:06:25;11.54;77.25
75357;HTU21D;63946;51.986;5.930;2023-02-18T13:12:02;11.56;76.94
75357;HTU21D;63946;51.986;5.930;2023-02-18T13:17:25;11.56;76.89
75357;HTU21D;63946;51.986;5.930;2023-02-18T13:20:02;11.59;76.78
75357;HTU21D;63946;51.986;5.930;2023-02-18T13:22:32;11.67;76.70
75357;HTU21D;63946;51.986;5.930;2023-02-18T13:25:02;11.67;76.50
75357;HTU21D;63946;51.986;5.930;2023-02-18T13:27:41;11.72;76.48
75357;HTU21D;63946;51.986;5.930;2023-02-18T13:33:39;11.90;76.05
75357;HTU21D;63946;51.986;5.930;2023-02-18T13:41:40;11.96;75.89
75357;HTU21D;63946;51.986;5.930;2023-02-18T13:46:51;11.91;75.85
75357;HTU21D;63946;51.986;5.930;2023-02-18T13:51:56;11.86;75.99
75357;HTU21D;63946;51.986;5.930;2023-02-18T13:54:44;11.86;75.95
75357;HTU21D;63946;51.986;5.930;2023-02-18T13:57:19;11.87;75.98
75357;HTU21D;63946;51.986;5.930;2023-02-18T13:59:54;11.87;75.95
75357;HTU21D;63946;51.986;5.930;2023-02-18T14:07:43;11.86;75.89
75357;HTU21D;63946;51.986;5.930;2023-02-18T14:20:45;11.82;75.84
75357;HTU21D;63946;51.986;5.930;2023-02-18T14:26:35;11.86;75.65
75357;HTU21D;63946;51.986;5.930;2023-02-18T14:28:48;11.86;75.59
75357;HTU21D;63946;51.986;5.930;2023-02-18T14:31:35;11.85;75.59
75357;HTU21D;63946;51.986;5.930;2023-02-18T14:34:17;11.85;75.55
75357;HTU21D;63946;51.986;5.930;2023-02-18T14:50:49;11.82;75.55
75357;HTU21D;63946;51.986;5.930;2023-02-18T14:53:22;11.83;75.47
75357;HTU21D;63946;51.986;5.930;2023-02-18T14:56:02;11.82;75.39
75357;HTU21D;63946;51.986;5.930;2023-02-18T14:58:36;11.82;75.50
75357;HTU21D;63946;51.986;5.930;2023-02-18T15:01:19;11.82;75.47
75357;HTU21D;63946;51.986;5.930;2023-02-18T15:03:51;11.83;75.57
75357;HTU21D;63946;51.986;5.930;2023-02-18T15:06:34;11.85;75.50
75357;HTU21D;63946;51.986;5.930;2023-02-18T15:09:17;11.87;75.52
75357;HTU21D;63946;51.986;5.930;2023-02-18T15:11:59;11.89;75.54
75357;HTU21D;63946;51.986;5.930;2023-02-18T15:17:20;11.90;75.42
75357;HTU21D;63946;51.986;5.930;2023-02-18T15:19:57;11.90;75.44
75357;HTU21D;63946;51.986;5.930;2023-02-18T15:22:30;11.91;75.47
75357;HTU21D;63946;51.986;5.930;2023-02-18T15:25:00;11.91;75.44
75357;HTU21D;63946;51.986;5.930;2023-02-18T15:27:38;11.89;75.47
75357;HTU21D;63946;51.986;5.930;2023-02-18T15:32:51;11.88;75.39
75357;HTU21D;63946;51.986;5.930;2023-02-18T15:35:24;11.89;75.44
75357;HTU21D;63946;51.986;5.930;2023-02-18T15:37:56;11.92;75.43
75357;HTU21D;63946;51.986;5.930;2023-02-18T15:40:31;11.92;75.34
75357;HTU21D;63946;51.986;5.930;2023-02-18T15:43:03;11.92;75.36
75357;HTU21D;63946;51.986;5.930;2023-02-18T15:45:36;11.93;75.35
75357;HTU21D;63946;51.986;5.930;2023-02-18T15:48:06;11.94;75.41
75357;HTU21D;63946;51.986;5.930;2023-02-18T15:50:54;11.94;75.38
75357;HTU21D;63946;51.986;5.930;2023-02-18T15:53:24;11.94;75.38
75357;HTU21D;63946;51.986;5.930;2023-02-18T15:55:53;11.96;75.34
75357;HTU21D;63946;51.986;5.930;2023-02-18T15:58:27;11.96;75.31
75357;HTU21D;63946;51.986;5.930;2023-02-18T16:01:28;11.96;75.18
75357;HTU21D;63946;51.986;5.930;2023-02-18T16:03:58;11.93;75.18
75357;HTU21D;63946;51.986;5.930;2023-02-18T16:06:29;11.92;75.21
75357;HTU21D;63946;51.986;5.930;2023-02-18T16:09:06;11.92;75.27
75357;HTU21D;63946;51.986;5.930;2023-02-18T16:11:45;11.93;75.20
75357;HTU21D;63946;51.986;5.930;2023-02-18T16:14:25;11.92;75.14
75357;HTU21D;63946;51.986;5.930;2023-02-18T16:17:10;11.90;75.18
75357;HTU21D;63946;51.986;5.930;2023-02-18T16:19:51;11.87;75.21
75357;HTU21D;63946;51.986;5.930;2023-02-18T16:27:35;11.84;75.33
75357;HTU21D;63946;51.986;5.930;2023-02-18T16:30:19;11.85;75.41
75357;HTU21D;63946;51.986;5.930;2023-02-18T16:32:49;11.82;75.49
75357;HTU21D;63946;51.986;5.930;2023-02-18T16:35:21;11.82;75.48
75357;HTU21D;63946;51.986;5.930;2023-02-18T16:37:52;11.79;75.47
75357;HTU21D;63946;51.986;5.930;2023-02-18T16:40:37;11.79;75.44
75357;HTU21D;63946;51.986;5.930;2023-02-18T16:43:22;11.75;75.48
75357;HTU21D;63946;51.986;5.930;2023-02-18T16:45:55;11.73;75.59
75357;HTU21D;63946;51.986;5.930;2023-02-18T16:48:36;11.74;75.61
75357;HTU21D;63946;51.986;5.930;2023-02-18T16:51:21;11.75;75.54
75357;HTU21D;63946;51.986;5.930;2023-02-18T16:53:53;11.74;75.55
75357;HTU21D;63946;51.986;5.930;2023-02-18T16:56:26;11.75;75.54
75357;HTU21D;63946;51.986;5.930;2023-02-18T16:58:55;11.73;75.56
75357;HTU21D;63946;51.986;5.930;2023-02-18T17:01:26;11.73;75.60
75357;HTU21D;63946;51.986;5.930;2023-02-18T17:03:57;11.75;75.62
75357;HTU21D;63946;51.986;5.930;2023-02-18T17:06:29;11.75;75.59
75357;HTU21D;63946;51.986;5.930;2023-02-18T17:09:00;11.75;75.60
75357;HTU21D;63946;51.986;5.930;2023-02-18T17:11:34;11.76;75.62
75357;HTU21D;63946;51.986;5.930;2023-02-18T17:14:03;11.73;75.64
75357;HTU21D;63946;51.986;5.930;2023-02-18T17:16:32;11.72;75.69
75357;HTU21D;63946;51.986;5.930;2023-02-18T17:19:01;11.68;75.74
75357;HTU21D;63946;51.986;5.930;2023-02-18T17:21:30;11.67;75.77
75357;HTU21D;63946;51.986;5.930;2023-02-18T17:23:59;11.66;75.76
75357;HTU21D;63946;51.986;5.930;2023-02-18T17:26:28;11.63;75.82
75357;HTU21D;63946;51.986;5.930;2023-02-18T17:28:58;11.62;75.80
75357;HTU21D;63946;51.986;5.930;2023-02-18T17:31:42;11.61;75.75
75357;HTU21D;63946;51.986;5.930;2023-02-18T17:34:25;11.61;75.82
75357;HTU21D;63946;51.986;5.930;2023-02-18T17:36:57;11.60;75.85
75357;HTU21D;63946;51.986;5.930;2023-02-18T17:39:27;11.61;75.83
75357;HTU21D;63946;51.986;5.930;2023-02-18T17:41:56;11.61;75.85
75357;HTU21D;63946;51.986;5.930;2023-02-18T17:44:26;11.60;75.86
75357;HTU21D;63946;51.986;5.930;2023-02-18T17:46:57;11.61;75.90
75357;HTU21D;63946;51.986;5.930;2023-02-18T17:49:27;11.60;75.90
75357;HTU21D;63946;51.986;5.930;2023-02-18T17:51:56;11.61;75.92
75357;HTU21D;63946;51.986;5.930;2023-02-18T17:54:26;11.60;75.95
75357;HTU21D;63946;51.986;5.930;2023-02-18T17:56:55;11.58;76.00
75357;HTU21D;63946;51.986;5.930;2023-02-18T17:59:24;11.58;76.08
75357;HTU21D;63946;51.986;5.930;2023-02-18T18:01:55;11.57;76.14
75357;HTU21D;63946;51.986;5.930;2023-02-18T18:04:25;11.58;76.10
75357;HTU21D;63946;51.986;5.930;2023-02-18T18:06:56;11.58;76.15
75357;HTU21D;63946;51.986;5.930;2023-02-18T18:09:25;11.59;76.16
75357;HTU21D;63946;51.986;5.930;2023-02-18T18:11:54;11.60;76.10
75357;HTU21D;63946;51.986;5.930;2023-02-18T18:14:23;11.59;76.15
75357;HTU21D;63946;51.986;5.930;2023-02-18T18:16:52;11.59;76.13
75357;HTU21D;63946;51.986;5.930;2023-02-18T18:19:21;11.56;76.18
75357;HTU21D;63946;51.986;5.930;2023-02-18T18:21:50;11.54;76.27
75357;HTU21D;63946;51.986;5.930;2023-02-18T18:24:19;11.55;76.29
75357;HTU21D;63946;51.986;5.930;2023-02-18T18:26:47;11.53;76.30
75357;HTU21D;63946;51.986;5.930;2023-02-18T18:29:16;11.53;76.30
75357;HTU21D;63946;51.986;5.930;2023-02-18T18:31:45;11.51;76.31
75357;HTU21D;63946;51.986;5.930;2023-02-18T18:34:17;11.51;76.34
75357;HTU21D;63946;51.986;5.930;2023-02-18T18:36:46;11.48;76.36
75357;HTU21D;63946;51.986;5.930;2023-02-18T18:39:15;11.48;76.41
75357;HTU21D;63946;51.986;5.930;2023-02-18T18:41:44;11.47;76.41
75357;HTU21D;63946;51.986;5.930;2023-02-18T18:44:18;11.47;76.44
75357;HTU21D;63946;51.986;5.930;2023-02-18T18:46:47;11.46;76.43
75357;HTU21D;63946;51.986;5.930;2023-02-18T18:49:17;11.45;76.50
75357;HTU21D;63946;51.986;5.930;2023-02-18T18:51:46;11.45;76.54
75357;HTU21D;63946;51.986;5.930;2023-02-18T18:54:15;11.46;76.54
75357;HTU21D;63946;51.986;5.930;2023-02-18T18:56:43;11.46;76.51
75357;HTU21D;63946;51.986;5.930;2023-02-18T18:59:22;11.48;76.47
75357;HTU21D;63946;51.986;5.930;2023-02-18T19:01:57;11.48;76.49
75357;HTU21D;63946;51.986;5.930;2023-02-18T19:04:29;11.51;76.53
75357;HTU21D;63946;51.986;5.930;2023-02-18T19:06:58;11.51;76.53
75357;HTU21D;63946;51.986;5.930;2023-02-18T19:09:29;11.49;76.60
75357;HTU21D;63946;51.986;5.930;2023-02-18T19:12:04;11.49;76.72
75357;HTU21D;63946;51.986;5.930;2023-02-18T19:14:35;11.48;76.82
75357;HTU21D;63946;51.986;5.930;2023-02-18T19:17:07;11.48;76.94
75357;HTU21D;63946;51.986;5.930;2023-02-18T19:19:37;11.44;77.05
75357;HTU21D;63946;51.986;5.930;2023-02-18T19:22:20;11.42;77.13
75357;HTU21D;63946;51.986;5.930;2023-02-18T19:24:51;11.42;77.20
75357;HTU21D;63946;51.986;5.930;2023-02-18T19:27:20;11.42;77.28
75357;HTU21D;63946;51.986;5.930;2023-02-18T19:29:49;11.41;77.35
75357;HTU21D;63946;51.986;5.930;2023-02-18T19:32:19;11.40;77.39
75357;HTU21D;63946;51.986;5.930;2023-02-18T19:34:53;11.39;77.51
75357;HTU21D;63946;51.986;5.930;2023-02-18T19:37:25;11.34;77.58
75357;HTU21D;63946;51.986;5.930;2023-02-18T19:39:54;11.34;77.57
75357;HTU21D;63946;51.986;5.930;2023-02-18T19:42:23;11.33;77.63
75357;HTU21D;63946;51.986;5.930;2023-02-18T19:44:52;11.34;77.67
75357;HTU21D;63946;51.986;5.930;2023-02-18T19:47:23;11.34;77.63
75357;HTU21D;63946;51.986;5.930;2023-02-18T19:50:16;11.36;77.59
75357;HTU21D;63946;51.986;5.930;2023-02-18T19:52:45;11.31;77.62
75357;HTU21D;63946;51.986;5.930;2023-02-18T19:55:14;11.31;77.66
75357;HTU21D;63946;51.986;5.930;2023-02-18T19:57:43;11.31;77.64
75357;HTU21D;63946;51.986;5.930;2023-02-18T20:00:14;11.28;77.70
75357;HTU21D;63946;51.986;5.930;2023-02-18T20:02:45;11.29;77.72
75357;HTU21D;63946;51.986;5.930;2023-02-18T20:05:14;11.29;77.71
75357;HTU21D;63946;51.986;5.930;2023-02-18T20:07:48;11.30;77.74
75357;HTU21D;63946;51.986;5.930;2023-02-18T20:10:19;11.31;77.74
75357;HTU21D;63946;51.986;5.930;2023-02-18T20:12:51;11.29;77.74
75357;HTU21D;63946;51.986;5.930;2023-02-18T20:15:20;11.28;77.72
75357;HTU21D;63946;51.986;5.930;2023-02-18T20:17:49;11.27;77.74
75357;HTU21D;63946;51.986;5.930;2023-02-18T20:20:24;11.29;77.76
75357;HTU21D;63946;51.986;5.930;2023-02-18T20:22:53;11.28;77.76
75357;HTU21D;63946;51.986;5.930;2023-02-18T20:25:22;11.26;77.80
75357;HTU21D;63946;51.986;5.930;2023-02-18T20:27:51;11.26;77.88
75357;HTU21D;63946;51.986;5.930;2023-02-18T20:30:20;11.27;77.89
75357;HTU21D;63946;51.986;5.930;2023-02-18T20:32:49;11.28;77.89
75357;HTU21D;63946;51.986;5.930;2023-02-18T20:35:20;11.27;77.90
75357;HTU21D;63946;51.986;5.930;2023-02-18T20:37:54;11.29;77.90
75357;HTU21D;63946;51.986;5.930;2023-02-18T20:40:26;11.29;77.96
75357;HTU21D;63946;51.986;5.930;2023-02-18T20:42:58;11.29;77.98
75357;HTU21D;63946;51.986;5.930;2023-02-18T20:45:27;11.27;78.11
75357;HTU21D;63946;51.986;5.930;2023-02-18T20:47:55;11.25;78.21
75357;HTU21D;63946;51.986;5.930;2023-02-18T20:50:24;11.23;78.37
75357;HTU21D;63946;51.986;5.930;2023-02-18T20:52:53;11.23;78.47
75357;HTU21D;63946;51.986;5.930;2023-02-18T20:55:23;11.22;78.52
75357;HTU21D;63946;51.986;5.930;2023-02-18T20:57:54;11.20;78.59
75357;HTU21D;63946;51.986;5.930;2023-02-18T21:00:23;11.23;78.63
75357;HTU21D;63946;51.986;5.930;2023-02-18T21:03:01;11.25;78.63
75357;HTU21D;63946;51.986;5.930;2023-02-18T21:05:40;11.26;78.66
